createdAt,value
2018-12-20T00:01:55.561Z,88.20
2018-12-20T00:04:24.195Z,88.20
2018-12-20T00:06:52.818Z,88.10
2018-12-20T00:09:21.664Z,88.00
2018-12-20T00:11:51.287Z,87.90
2018-12-20T00:14:19.855Z,87.80
2018-12-20T00:16:53.678Z,87.70
2018-12-20T00:19:23.413Z,87.70
2018-12-20T00:21:53.088Z,87.80
2018-12-20T00:24:22.627Z,87.90
2018-12-20T00:26:52.195Z,88.10
2018-12-20T00:29:21.786Z,88.20
2018-12-20T00:31:51.378Z,88.20
2018-12-20T00:34:21.313Z,88.50
2018-12-20T00:36:51.109Z,88.70
2018-12-20T00:39:21.106Z,88.80
2018-12-20T00:41:51.097Z,88.80
2018-12-20T00:44:20.955Z,88.70
2018-12-20T00:46:50.305Z,88.50
2018-12-20T00:49:18.868Z,88.40
2018-12-20T00:51:47.389Z,88.20
2018-12-20T00:54:15.974Z,88.20
2018-12-20T00:56:44.561Z,88.00
2018-12-20T00:59:13.243Z,88.00
2018-12-20T01:01:41.838Z,88.00
2018-12-20T01:04:10.671Z,88.10
2018-12-20T01:06:39.498Z,88.00
2018-12-20T01:09:08.897Z,88.10
2018-12-20T01:11:37.520Z,88.30
2018-12-20T01:14:06.605Z,88.30
2018-12-20T01:16:35.307Z,88.10
2018-12-20T01:19:03.899Z,88.00
2018-12-20T01:21:32.647Z,88.00
2018-12-20T01:24:01.684Z,88.10
2018-12-20T01:26:30.305Z,88.30
2018-12-20T01:28:58.897Z,88.50
2018-12-20T01:31:27.762Z,88.70
2018-12-20T01:33:56.394Z,89.00
2018-12-20T01:36:24.949Z,89.30
2018-12-20T01:38:53.570Z,89.40
2018-12-20T01:41:22.179Z,89.70
2018-12-20T01:43:50.828Z,89.80
2018-12-20T01:46:19.420Z,90.00
2018-12-20T01:48:48.223Z,90.10
2018-12-20T01:51:16.927Z,90.10
2018-12-20T01:53:45.550Z,90.10
2018-12-20T01:56:14.197Z,90.10
2018-12-20T01:58:43.007Z,90.50
2018-12-20T02:01:11.626Z,90.20
2018-12-20T02:03:40.169Z,90.20
2018-12-20T02:06:08.725Z,90.20
2018-12-20T02:08:37.274Z,90.20
2018-12-20T02:11:05.906Z,90.20
2018-12-20T02:13:34.549Z,90.20
2018-12-20T02:16:03.071Z,90.30
2018-12-20T02:18:31.633Z,90.30
2018-12-20T02:21:00.314Z,90.30
2018-12-20T02:23:28.918Z,90.40
2018-12-20T02:25:57.450Z,90.40
2018-12-20T02:28:25.992Z,90.40
2018-12-20T02:30:54.774Z,90.50
2018-12-20T02:33:23.368Z,90.50
2018-12-20T02:35:52.026Z,90.50
2018-12-20T02:38:20.714Z,90.60
2018-12-20T02:40:49.337Z,90.50
2018-12-20T02:43:17.894Z,90.50
2018-12-20T02:45:46.572Z,90.40
2018-12-20T02:48:15.388Z,90.50
2018-12-20T02:50:44.137Z,90.50
2018-12-20T02:53:12.954Z,90.50
2018-12-20T02:55:41.761Z,90.50
2018-12-20T02:58:10.522Z,90.60
2018-12-20T03:00:39.121Z,90.60
2018-12-20T03:03:07.645Z,90.60
2018-12-20T03:05:36.243Z,90.60
2018-12-20T03:08:04.845Z,90.60
2018-12-20T03:10:33.929Z,90.70
2018-12-20T03:13:02.694Z,91.00
2018-12-20T03:15:31.363Z,90.70
2018-12-20T03:18:00.105Z,90.70
2018-12-20T03:20:29.315Z,90.60
2018-12-20T03:22:58.065Z,90.50
2018-12-20T03:25:26.775Z,90.50
2018-12-20T03:27:55.510Z,90.50
2018-12-20T03:30:24.130Z,90.40
2018-12-20T03:32:52.736Z,90.30
2018-12-20T03:35:21.376Z,90.30
2018-12-20T03:37:49.940Z,90.30
2018-12-20T03:40:18.535Z,90.40
2018-12-20T03:42:47.360Z,90.40
2018-12-20T03:45:15.921Z,90.40
2018-12-20T03:47:44.532Z,90.40
2018-12-20T03:50:13.285Z,90.40
2018-12-20T03:52:41.971Z,90.40
2018-12-20T03:55:10.598Z,90.40
2018-12-20T03:57:39.324Z,90.40
2018-12-20T04:00:08.427Z,90.40
2018-12-20T04:02:37.198Z,90.40
2018-12-20T04:05:06.280Z,90.50
2018-12-20T04:07:34.969Z,90.60
2018-12-20T04:10:03.786Z,90.60
2018-12-20T04:12:32.793Z,90.60
2018-12-20T04:15:01.450Z,90.70
2018-12-20T04:17:30.224Z,90.70
2018-12-20T04:19:58.851Z,90.80
2018-12-20T04:22:27.399Z,90.70
2018-12-20T04:24:55.967Z,90.80
2018-12-20T04:27:24.518Z,90.80
2018-12-20T04:29:53.050Z,90.80
2018-12-20T04:32:21.581Z,90.80
2018-12-20T04:34:50.132Z,90.90
2018-12-20T04:37:19.026Z,90.90
2018-12-20T04:39:47.763Z,91.00
2018-12-20T04:42:16.318Z,91.00
2018-12-20T04:44:45.149Z,91.10
2018-12-20T04:47:13.794Z,91.10
2018-12-20T04:49:42.336Z,91.10
2018-12-20T04:52:11.168Z,91.10
2018-12-20T04:54:39.836Z,91.10
2018-12-20T04:57:08.357Z,91.10
2018-12-20T04:59:36.988Z,91.10
2018-12-20T05:02:05.821Z,91.10
2018-12-20T05:04:34.446Z,91.20
2018-12-20T05:07:03.047Z,91.20
2018-12-20T05:09:31.898Z,91.30
2018-12-20T05:12:00.815Z,91.40
2018-12-20T05:14:29.646Z,91.40
2018-12-20T05:16:58.301Z,91.50
2018-12-20T05:19:27.134Z,91.60
2018-12-20T05:21:55.699Z,91.60
2018-12-20T05:24:24.403Z,91.70
2018-12-20T05:26:53.149Z,91.70
2018-12-20T05:29:22.046Z,91.70
2018-12-20T05:31:50.584Z,91.80
2018-12-20T05:34:19.271Z,91.80
2018-12-20T05:36:47.893Z,91.80
2018-12-20T05:39:16.537Z,91.80
2018-12-20T05:41:45.295Z,91.70
2018-12-20T05:44:13.980Z,91.70
2018-12-20T05:46:42.636Z,91.70
2018-12-20T05:49:11.456Z,91.90
2018-12-20T05:51:40.085Z,91.70
2018-12-20T05:54:08.848Z,91.60
2018-12-20T05:56:37.509Z,91.60
2018-12-20T05:59:06.377Z,91.50
2018-12-20T06:01:35.046Z,91.50
2018-12-20T06:04:03.854Z,91.40
2018-12-20T06:06:32.395Z,91.30
2018-12-20T06:09:00.918Z,91.20
2018-12-20T06:11:29.578Z,91.20
2018-12-20T06:13:58.224Z,91.20
2018-12-20T06:16:26.779Z,91.20
2018-12-20T06:18:55.505Z,91.30
2018-12-20T06:21:24.255Z,91.30
2018-12-20T06:23:52.845Z,91.20
2018-12-20T06:26:21.386Z,91.10
2018-12-20T06:28:49.903Z,91.00
2018-12-20T06:31:18.442Z,90.90
2018-12-20T06:33:46.962Z,90.90
2018-12-20T06:36:15.513Z,90.80
2018-12-20T06:38:44.277Z,90.70
2018-12-20T06:41:12.839Z,90.70
2018-12-20T06:43:41.351Z,90.70
2018-12-20T06:46:09.910Z,90.70
2018-12-20T06:48:38.424Z,90.70
2018-12-20T06:51:06.977Z,90.70
2018-12-20T06:53:35.505Z,90.60
2018-12-20T06:56:04.057Z,90.70
2018-12-20T06:58:32.590Z,90.60
2018-12-20T07:01:01.859Z,90.60
2018-12-20T07:03:30.382Z,90.70
2018-12-20T07:05:58.912Z,90.70
2018-12-20T07:08:27.438Z,90.80
2018-12-20T07:10:55.941Z,90.80
2018-12-20T07:13:24.489Z,90.70
2018-12-20T07:15:53.031Z,90.60
2018-12-20T07:18:21.608Z,90.60
2018-12-20T07:20:50.266Z,90.70
2018-12-20T07:23:19.006Z,90.60
2018-12-20T07:25:47.566Z,90.50
2018-12-20T07:28:16.100Z,90.50
2018-12-20T07:30:44.970Z,90.40
2018-12-20T07:33:13.494Z,90.30
2018-12-20T07:35:42.035Z,90.30
2018-12-20T07:38:10.550Z,90.30
2018-12-20T07:40:39.083Z,90.30
2018-12-20T07:43:07.586Z,90.30
2018-12-20T07:45:36.102Z,90.20
2018-12-20T07:48:04.659Z,90.20
2018-12-20T07:50:33.202Z,90.20
2018-12-20T07:53:01.746Z,90.10
2018-12-20T07:55:30.829Z,90.20
2018-12-20T07:57:59.367Z,90.10
2018-12-20T08:00:29.934Z,90.10
2018-12-20T08:02:58.475Z,90.00
2018-12-20T08:05:27.014Z,90.00
2018-12-20T08:07:55.537Z,89.90
2018-12-20T08:10:24.094Z,89.90
2018-12-20T08:12:52.657Z,90.00
2018-12-20T08:15:21.242Z,89.90
2018-12-20T08:17:49.905Z,89.90
2018-12-20T08:20:19.415Z,89.80
2018-12-20T08:22:48.166Z,89.40
2018-12-20T08:25:16.706Z,89.20
2018-12-20T08:27:45.239Z,89.10
2018-12-20T08:30:14.078Z,89.50
2018-12-20T08:32:42.602Z,88.60
2018-12-20T08:35:11.497Z,88.40
2018-12-20T08:37:40.876Z,88.30
2018-12-20T08:40:13.438Z,88.30
2018-12-20T08:42:42.222Z,88.20
2018-12-20T08:45:10.759Z,88.30
2018-12-20T08:47:39.298Z,88.20
2018-12-20T08:50:07.976Z,88.20
2018-12-20T08:52:36.507Z,88.20
2018-12-20T08:55:05.566Z,88.20
2018-12-20T08:57:34.138Z,88.20
2018-12-20T09:00:02.700Z,88.10
2018-12-20T09:02:31.470Z,87.90
2018-12-20T09:05:00.014Z,87.70
2018-12-20T09:07:28.542Z,87.50
2018-12-20T09:09:57.094Z,88.30
2018-12-20T09:12:25.628Z,87.80
2018-12-20T09:14:54.176Z,88.50
2018-12-20T09:17:22.718Z,88.10
2018-12-20T09:19:51.941Z,88.20
2018-12-20T09:22:20.461Z,88.10
2018-12-20T09:24:49.009Z,88.20
2018-12-20T09:27:17.580Z,88.00
2018-12-20T09:29:46.138Z,88.00
2018-12-20T09:32:14.797Z,87.70
2018-12-20T09:34:43.358Z,87.50
2018-12-20T09:37:11.887Z,87.30
2018-12-20T09:39:40.457Z,86.80
2018-12-20T09:42:09.005Z,86.60
2018-12-20T09:44:37.550Z,86.40
2018-12-20T09:47:12.197Z,86.00
2018-12-20T09:49:40.939Z,85.40
2018-12-20T09:52:09.474Z,85.60
2018-12-20T09:54:38.067Z,85.10
2018-12-20T09:57:06.629Z,84.80
2018-12-20T09:59:35.229Z,84.90
2018-12-20T10:02:03.770Z,84.30
2018-12-20T10:04:32.344Z,83.60
2018-12-20T10:07:00.915Z,83.20
2018-12-20T10:09:31.443Z,83.30
2018-12-20T10:12:00.055Z,83.10
2018-12-20T10:14:28.567Z,83.00
2018-12-20T10:16:57.121Z,82.70
2018-12-20T10:19:25.675Z,82.60
2018-12-20T10:22:00.693Z,82.50
2018-12-20T10:24:29.233Z,82.50
2018-12-20T10:26:57.766Z,82.60
2018-12-20T10:29:26.286Z,82.60
2018-12-20T10:31:54.850Z,82.30
2018-12-20T10:34:23.458Z,82.30
2018-12-20T10:36:51.999Z,82.10
2018-12-20T10:39:20.540Z,82.30
2018-12-20T10:41:49.326Z,81.80
2018-12-20T10:44:17.860Z,81.70
2018-12-20T10:46:46.386Z,81.90
2018-12-20T10:49:15.193Z,81.80
2018-12-20T10:51:43.730Z,81.80
2018-12-20T10:54:12.253Z,81.60
2018-12-20T10:56:40.803Z,81.20
2018-12-20T10:59:09.322Z,80.90
2018-12-20T11:01:43.178Z,80.40
2018-12-20T11:04:20.128Z,80.60
2018-12-20T11:06:53.795Z,80.10
2018-12-20T11:09:27.566Z,80.20
2018-12-20T11:12:01.376Z,80.50
2018-12-20T11:14:29.923Z,80.60
2018-12-20T11:16:58.438Z,80.60
2018-12-20T11:19:27.074Z,80.20
2018-12-20T11:21:55.594Z,79.60
2018-12-20T11:24:24.131Z,79.50
2018-12-20T11:26:52.666Z,79.50
2018-12-20T11:29:21.331Z,78.90
2018-12-20T11:31:50.278Z,78.60
2018-12-20T11:34:18.806Z,78.30
2018-12-20T11:36:48.432Z,77.60
2018-12-20T11:39:17.174Z,77.80
2018-12-20T11:41:45.734Z,77.50
2018-12-20T11:44:14.270Z,77.30
2018-12-20T11:46:42.806Z,77.80
2018-12-20T11:49:11.728Z,77.90
2018-12-20T11:51:40.273Z,77.40
2018-12-20T11:54:08.820Z,77.00
2018-12-20T11:56:37.326Z,77.40
2018-12-20T11:59:05.874Z,77.60
2018-12-20T12:01:34.544Z,77.50
2018-12-20T12:04:03.091Z,76.70
2018-12-20T12:06:31.627Z,76.80
2018-12-20T12:09:00.173Z,76.70
2018-12-20T12:11:28.730Z,76.50
2018-12-20T12:13:57.374Z,76.40
2018-12-20T12:16:26.205Z,76.10
2018-12-20T12:18:54.783Z,76.20
2018-12-20T12:21:23.302Z,75.90
2018-12-20T12:23:51.858Z,75.20
2018-12-20T12:26:20.396Z,75.00
2018-12-20T12:28:48.958Z,75.60
2018-12-20T12:31:17.482Z,75.40
2018-12-20T12:33:46.026Z,75.20
2018-12-20T12:36:14.544Z,74.80
2018-12-20T12:38:43.073Z,74.70
2018-12-20T12:41:11.607Z,74.20
2018-12-20T12:43:40.134Z,74.70
2018-12-20T12:46:08.699Z,74.90
2018-12-20T12:48:37.421Z,74.50
2018-12-20T12:51:05.961Z,74.40
2018-12-20T12:53:34.841Z,74.40
2018-12-20T12:56:03.786Z,74.50
2018-12-20T12:58:32.447Z,73.80
2018-12-20T13:01:01.030Z,73.70
2018-12-20T13:03:29.793Z,73.40
2018-12-20T13:05:59.045Z,73.00
2018-12-20T13:08:27.773Z,72.60
2018-12-20T13:10:58.328Z,71.80
2018-12-20T13:13:26.853Z,71.20
2018-12-20T13:15:55.373Z,71.40
2018-12-20T13:18:23.926Z,70.50
2018-12-20T13:20:52.455Z,70.50
2018-12-20T13:23:21.011Z,70.30
2018-12-20T13:25:49.647Z,70.00
2018-12-20T13:28:18.174Z,69.70
2018-12-20T13:30:46.778Z,69.30
2018-12-20T13:33:15.482Z,69.00
2018-12-20T13:35:44.039Z,68.70
2018-12-20T13:38:12.608Z,68.70
2018-12-20T13:40:41.144Z,69.10
2018-12-20T13:43:09.743Z,69.00
2018-12-20T13:45:38.296Z,69.00
2018-12-20T13:48:07.235Z,69.10
2018-12-20T13:50:35.801Z,68.90
2018-12-20T13:53:04.322Z,69.10
2018-12-20T13:55:33.118Z,69.40
2018-12-20T13:58:01.668Z,69.60
2018-12-20T14:00:30.194Z,69.50
2018-12-20T14:02:58.736Z,69.30
2018-12-20T14:05:27.278Z,69.20
2018-12-20T14:07:58.903Z,69.20
2018-12-20T14:10:26.492Z,68.90
2018-12-20T14:12:55.124Z,69.20
2018-12-20T14:15:23.867Z,69.60
2018-12-20T14:17:52.453Z,69.90
2018-12-20T14:20:21.018Z,69.70
2018-12-20T14:22:49.569Z,69.50
2018-12-20T14:25:18.771Z,69.70
2018-12-20T14:27:47.371Z,70.00
2018-12-20T14:30:16.007Z,70.30
2018-12-20T14:32:44.651Z,70.40
2018-12-20T14:35:13.601Z,70.70
2018-12-20T14:37:42.168Z,71.00
2018-12-20T14:40:10.903Z,71.30
2018-12-20T14:42:39.630Z,71.50
2018-12-20T14:45:08.694Z,71.70
2018-12-20T14:47:37.214Z,71.90
2018-12-20T14:50:07.411Z,72.10
2018-12-20T14:52:36.019Z,72.10
2018-12-20T14:55:05.879Z,72.30
2018-12-20T14:57:34.442Z,72.20
2018-12-20T15:00:02.986Z,72.20
2018-12-20T15:02:31.526Z,72.10
2018-12-20T15:05:00.083Z,71.90
2018-12-20T15:07:28.691Z,72.10
2018-12-20T15:09:57.299Z,72.10
2018-12-20T15:12:26.842Z,72.10
2018-12-20T15:14:55.379Z,72.00
2018-12-20T15:17:23.955Z,71.90
2018-12-20T15:19:52.783Z,71.80
2018-12-20T15:22:21.486Z,71.80
2018-12-20T15:24:50.179Z,71.70
2018-12-20T15:27:18.688Z,71.70
2018-12-20T15:29:47.218Z,71.80
2018-12-20T15:32:15.887Z,72.20
2018-12-20T15:34:44.439Z,72.40
2018-12-20T15:37:13.066Z,72.60
2018-12-20T15:39:41.705Z,72.90
2018-12-20T15:42:10.344Z,73.00
2018-12-20T15:44:40.383Z,73.10
2018-12-20T15:47:09.147Z,73.30
2018-12-20T15:49:42.008Z,73.40
2018-12-20T15:52:08.583Z,73.50
2018-12-20T15:54:37.174Z,73.60
2018-12-20T15:57:05.870Z,73.60
2018-12-20T15:59:34.514Z,73.80
2018-12-20T16:02:03.336Z,73.90
2018-12-20T16:04:31.914Z,74.10
2018-12-20T16:07:00.794Z,74.30
2018-12-20T16:09:29.357Z,74.40
2018-12-20T16:11:57.906Z,74.60
2018-12-20T16:14:26.939Z,74.80
2018-12-20T16:16:55.485Z,74.90
2018-12-20T16:19:24.058Z,75.00
2018-12-20T16:21:52.690Z,75.20
2018-12-20T16:24:21.341Z,75.30
2018-12-20T16:26:49.902Z,75.40
2018-12-20T16:29:18.486Z,75.50
2018-12-20T16:31:47.048Z,75.60
2018-12-20T16:34:15.891Z,75.70
2018-12-20T16:36:44.439Z,75.90
2018-12-20T16:39:12.979Z,76.00
2018-12-20T16:41:42.255Z,76.00
2018-12-20T16:44:11.988Z,76.10
2018-12-20T16:46:41.430Z,76.20
2018-12-20T16:49:13.789Z,76.30
2018-12-20T16:51:42.060Z,76.20
2018-12-20T16:54:11.158Z,76.30
2018-12-20T16:56:40.404Z,76.40
2018-12-20T16:59:08.913Z,76.50
2018-12-20T17:01:37.986Z,76.70
2018-12-20T17:04:07.161Z,76.80
2018-12-20T17:06:36.156Z,76.80
2018-12-20T17:09:08.420Z,76.80
2018-12-20T17:11:37.586Z,76.80
2018-12-20T17:14:06.820Z,76.80
2018-12-20T17:16:36.094Z,76.80
2018-12-20T17:19:04.733Z,76.90
2018-12-20T17:21:33.999Z,76.90
2018-12-20T17:24:03.107Z,76.90
2018-12-20T17:26:32.156Z,76.90
2018-12-20T17:29:01.220Z,76.80
2018-12-20T17:31:30.352Z,77.70
2018-12-20T17:34:01.695Z,77.00
2018-12-20T17:36:30.798Z,77.00
2018-12-20T17:39:00.028Z,77.00
2018-12-20T17:41:29.291Z,77.00
2018-12-20T17:43:58.528Z,77.00
2018-12-20T17:46:27.812Z,77.10
2018-12-20T17:48:56.973Z,77.20
2018-12-20T17:51:26.132Z,77.30
2018-12-20T17:53:55.429Z,77.30
2018-12-20T17:56:24.760Z,77.40
2018-12-20T17:58:53.873Z,77.50
2018-12-20T18:01:23.020Z,77.70
2018-12-20T18:03:52.254Z,77.80
2018-12-20T18:06:21.397Z,77.80
2018-12-20T18:08:50.186Z,77.90
2018-12-20T18:11:18.986Z,77.90
2018-12-20T18:13:47.550Z,78.00
2018-12-20T18:16:16.535Z,78.00
2018-12-20T18:18:45.070Z,78.10
2018-12-20T18:21:13.626Z,78.20
2018-12-20T18:23:42.150Z,78.20
2018-12-20T18:26:10.711Z,79.00
2018-12-20T18:28:39.259Z,78.40
2018-12-20T18:31:07.841Z,78.50
2018-12-20T18:33:36.370Z,78.60
2018-12-20T18:36:05.067Z,78.60
2018-12-20T18:38:33.599Z,78.50
2018-12-20T18:41:02.134Z,78.60
2018-12-20T18:43:30.742Z,78.70
2018-12-20T18:45:59.283Z,78.80
2018-12-20T18:48:27.839Z,78.90
2018-12-20T18:50:56.433Z,79.00
2018-12-20T18:53:25.026Z,79.20
2018-12-20T18:55:53.603Z,79.20
2018-12-20T18:58:22.189Z,79.40
2018-12-20T19:00:50.840Z,79.40
2018-12-20T19:03:19.455Z,79.30
2018-12-20T19:05:48.079Z,79.30
2018-12-20T19:08:16.604Z,79.10
2018-12-20T19:10:45.359Z,79.10
2018-12-20T19:13:13.899Z,79.10
2018-12-20T19:15:42.480Z,79.10
2018-12-20T19:18:11.025Z,79.20
2018-12-20T19:20:39.825Z,79.10
2018-12-20T19:23:08.562Z,79.10
2018-12-20T19:25:37.157Z,78.90
2018-12-20T19:28:05.680Z,78.90
2018-12-20T19:30:34.225Z,78.90
2018-12-20T19:33:02.791Z,78.90
2018-12-20T19:35:31.623Z,78.90
2018-12-20T19:38:00.306Z,78.90
2018-12-20T19:40:29.068Z,78.80
2018-12-20T19:42:57.701Z,78.70
2018-12-20T19:45:26.279Z,78.70
2018-12-20T19:47:54.862Z,78.90
2018-12-20T19:50:23.477Z,78.90
2018-12-20T19:52:52.013Z,79.10
2018-12-20T19:55:20.759Z,79.20
2018-12-20T19:57:49.322Z,79.30
2018-12-20T20:00:19.246Z,79.50
2018-12-20T20:02:47.816Z,79.70
2018-12-20T20:05:16.357Z,79.90
2018-12-20T20:07:44.951Z,80.00
2018-12-20T20:10:13.575Z,80.20
2018-12-20T20:12:42.331Z,80.30
2018-12-20T20:15:16.474Z,80.40
2018-12-20T20:17:42.691Z,80.40
2018-12-20T20:20:14.134Z,80.50
2018-12-20T20:22:42.087Z,80.70
2018-12-20T20:25:10.638Z,80.80
2018-12-20T20:27:39.215Z,80.90
2018-12-20T20:30:10.879Z,81.00
2018-12-20T20:32:39.441Z,81.00
2018-12-20T20:35:08.386Z,81.10
2018-12-20T20:37:37.074Z,81.30
2018-12-20T20:40:07.432Z,81.40
2018-12-20T20:42:35.964Z,81.50
2018-12-20T20:45:05.370Z,81.60
2018-12-20T20:47:33.896Z,81.60
2018-12-20T20:50:02.547Z,81.70
2018-12-20T20:52:31.327Z,81.70
2018-12-20T20:54:59.850Z,81.80
2018-12-20T20:57:28.370Z,82.00
2018-12-20T20:59:56.881Z,81.90
2018-12-20T21:02:25.430Z,82.10
2018-12-20T21:04:53.941Z,82.10
2018-12-20T21:07:22.501Z,82.10
2018-12-20T21:09:51.086Z,82.30
2018-12-20T21:12:22.944Z,82.30
2018-12-20T21:14:52.491Z,82.40
2018-12-20T21:17:20.729Z,82.50
2018-12-20T21:19:50.269Z,82.60
2018-12-20T21:22:19.034Z,82.70
2018-12-20T21:24:47.567Z,82.90
2018-12-20T21:27:16.098Z,83.00
2018-12-20T21:29:44.621Z,83.00
2018-12-20T21:32:13.214Z,83.00
2018-12-20T21:34:41.767Z,83.20
2018-12-20T21:37:10.322Z,83.20
2018-12-20T21:39:38.855Z,83.30
2018-12-20T21:42:07.381Z,83.30
2018-12-20T21:44:35.920Z,83.20
2018-12-20T21:47:04.462Z,82.90
2018-12-20T21:49:33.002Z,82.60
2018-12-20T21:52:01.716Z,82.50
2018-12-20T21:54:30.278Z,82.30
2018-12-20T21:56:58.798Z,82.10
2018-12-20T21:59:27.341Z,82.10
2018-12-20T22:01:55.866Z,82.00
2018-12-20T22:04:24.425Z,81.80
2018-12-20T22:06:52.969Z,81.80
2018-12-20T22:09:21.478Z,81.90
2018-12-20T22:11:50.017Z,81.80
2018-12-20T22:14:18.582Z,81.80
2018-12-20T22:16:47.112Z,82.50
2018-12-20T22:19:15.662Z,82.00
2018-12-20T22:21:44.213Z,82.20
2018-12-20T22:24:12.722Z,82.30
2018-12-20T22:26:41.247Z,82.50
2018-12-20T22:29:09.811Z,82.60
2018-12-20T22:31:38.350Z,82.80
2018-12-20T22:34:06.887Z,83.00
2018-12-20T22:36:35.414Z,83.20
2018-12-20T22:39:04.937Z,83.20
2018-12-20T22:41:33.478Z,83.30
2018-12-20T22:44:02.014Z,83.40
2018-12-20T22:46:30.543Z,83.30
2018-12-20T22:48:59.096Z,83.50
2018-12-20T22:51:27.746Z,83.70
2018-12-20T22:53:56.276Z,83.80
2018-12-20T22:56:24.807Z,83.90
2018-12-20T22:58:53.380Z,84.00
2018-12-20T23:01:21.919Z,84.20
2018-12-20T23:03:50.745Z,84.30
2018-12-20T23:06:19.342Z,84.40
2018-12-20T23:08:47.887Z,84.40
2018-12-20T23:11:16.441Z,84.60
2018-12-20T23:13:44.971Z,84.60
2018-12-20T23:16:13.510Z,84.60
2018-12-20T23:18:42.038Z,84.70
2018-12-20T23:21:10.565Z,84.70
2018-12-20T23:23:39.090Z,84.60
2018-12-20T23:26:07.638Z,84.50
2018-12-20T23:28:36.158Z,84.50
2018-12-20T23:31:04.695Z,84.50
2018-12-20T23:33:33.254Z,84.40
2018-12-20T23:36:01.804Z,84.30
2018-12-20T23:38:30.326Z,84.00
2018-12-20T23:40:58.878Z,83.60
2018-12-20T23:43:27.399Z,83.40
2018-12-20T23:45:55.949Z,83.40
2018-12-20T23:48:24.454Z,83.30
2018-12-20T23:50:52.978Z,83.10
2018-12-20T23:53:21.493Z,83.00
2018-12-20T23:55:50.036Z,83.00
2018-12-20T23:58:18.559Z,83.00
